CGNBR EGLK-EGHP
Flight info
| Callsign | CGNBR |
|---|---|
| Flight time | 0h 7m |
| Altitude | 2500 |
| Route | DIRECT |
| Aircraft | BE58/L-V/N |
Departure
| Time | 2026-05-03 21:10 |
|---|---|
| Airport | Blackbushe Airport (EGLK) |
Arrival
| Time | 2026-05-03 21:17 |
|---|---|
| Airport | Popham Airfield (EGHP) |
| Time | Latitude | Longitude | Altitude | Speed | Heading |
|---|---|---|---|---|---|
| 2026-05-03 21:09 | 51.32549 | -0.84064 | 324 ft | 0 kts | 250° |
| 2026-05-03 21:10 | 51.32547 | -0.84072 | 323 ft | 13 kts | 250° |
| 2026-05-03 21:10 | 51.32438 | -0.84699 | 316 ft | 97 kts | 252° |
| 2026-05-03 21:10 | 51.32172 | -0.85946 | 453 ft | 133 kts | 248° |
| 2026-05-03 21:10 | 51.31772 | -0.87224 | 1057 ft | 123 kts | 239° |
| 2026-05-03 21:11 | 51.31360 | -0.88387 | 1663 ft | 118 kts | 241° |
| 2026-05-03 21:11 | 51.31022 | -0.89377 | 2124 ft | 118 kts | 241° |
| 2026-05-03 21:11 | 51.30608 | -0.90546 | 2525 ft | 126 kts | 239° |
| 2026-05-03 21:11 | 51.30137 | -0.91738 | 2986 ft | 126 kts | 234° |
| 2026-05-03 21:12 | 51.29589 | -0.92798 | 3473 ft | 125 kts | 227° |
| 2026-05-03 21:12 | 51.28931 | -0.93965 | 3378 ft | 159 kts | 227° |
| 2026-05-03 21:12 | 51.28145 | -0.95355 | 3321 ft | 176 kts | 227° |
| 2026-05-03 21:12 | 51.27308 | -0.96833 | 3332 ft | 183 kts | 227° |
| 2026-05-03 21:13 | 51.26453 | -0.98381 | 3331 ft | 188 kts | 231° |
| 2026-05-03 21:13 | 51.25744 | -1.00142 | 3328 ft | 185 kts | 238° |
| 2026-05-03 21:13 | 51.25116 | -1.01835 | 3283 ft | 172 kts | 238° |
| 2026-05-03 21:13 | 51.24524 | -1.03447 | 3194 ft | 165 kts | 239° |
| 2026-05-03 21:14 | 51.23946 | -1.05011 | 3106 ft | 162 kts | 238° |
| 2026-05-03 21:14 | 51.23378 | -1.06553 | 3023 ft | 160 kts | 238° |
| 2026-05-03 21:14 | 51.22828 | -1.08058 | 2941 ft | 159 kts | 239° |
| 2026-05-03 21:14 | 51.22269 | -1.09568 | 2858 ft | 158 kts | 238° |
| 2026-05-03 21:15 | 51.21713 | -1.11072 | 2779 ft | 157 kts | 239° |
| 2026-05-03 21:15 | 51.21227 | -1.12382 | 2714 ft | 157 kts | 238° |
| 2026-05-03 21:15 | 51.20667 | -1.13888 | 2637 ft | 157 kts | 238° |
| 2026-05-03 21:15 | 51.20108 | -1.15386 | 2564 ft | 157 kts | 238° |
| 2026-05-03 21:16 | 51.19544 | -1.16888 | 2487 ft | 158 kts | 238° |
| 2026-05-03 21:16 | 51.19449 | -1.18479 | 1861 ft | 161 kts | 301° |
| 2026-05-03 21:16 | 51.20289 | -1.19454 | 1474 ft | 140 kts | 321° |
| 2026-05-03 21:16 | 51.20915 | -1.20557 | 1404 ft | 135 kts | 293° |
| 2026-05-03 21:17 | 51.20852 | -1.21922 | 933 ft | 116 kts | 230° |
| 2026-05-03 21:17 | 51.20440 | -1.22344 | 614 ft | 103 kts | 204° |
| 2026-05-03 21:17 | 51.19774 | -1.22972 | 503 ft | 65 kts | 207° |
| 2026-05-03 21:17 | 51.19483 | -1.23282 | 527 ft | 31 kts | 231° |
| 2026-05-03 21:18 | 51.19392 | -1.23491 | 525 ft | 18 kts | 249° |
| 2026-05-03 21:18 | 51.19378 | -1.23560 | 522 ft | 0 kts | 255° |
| 2026-05-03 21:18 | 51.19368 | -1.23617 | 519 ft | 12 kts | 253° |
| 2026-05-03 21:18 | 51.19364 | -1.23648 | 518 ft | 0 kts | 258° |